Nearby METAR Reports


Data Updates Approximately Every Four Hours

METAR is the international standard code format for hourly surface weather observations which is analogous to the SA coding currently used in the US. The acronym roughly translates from French as Aviation Routine Weather Report. SPECI is merely the code name given to METAR formatted products which are issued on a special non-routine basis as dictated by changing meteorological conditions. The SPECI acronym roughly translates as Aviation Selected Special Weather Report.

KSLH - Cheboygan, Michigan, USA
Distance from station: W 9mi, 14km
Updated: 09/28/2020 10:15pm
Mostly cloudy
Mostly cloudy
 Wind from SW
Wind: SW 3 mph , 6 km/h
Temperature: 52°F , 11°C
Dew Point: 50°F , 10°C
Humidity: 94%
Barometer: 29.63 inHg , 1003.4 hPa
Clouds: Mostly cloudy
Visibility: 10 miles , 16 km
Cloud details: Partly cloudy 6000 ft
Mostly cloudy 7000 ft
Mostly cloudy 8500 ft
2020/09/29 02:15 KSLH 290215Z AUTO 22003KT 10SM SCT060 BKN070 BKN085 11/10 A2963 RMK AO2 T01060101
KMCD - Mackinac Island, Michigan, USA
Distance from station: NW 19mi, 31km
Updated: 09/28/2020 10:15pm
Light rain, Overcast
Light rain, Overcast
 Wind from WNW
Wind: WNW 8 mph , 13 km/h
Temperature: 52°F , 11°C
Dew Point: 52°F , 11°C
Humidity: 100%
Barometer: 29.63 inHg , 1003.4 hPa
Summary: Light rain
Clouds: Overcast
Visibility: 7 miles , 11 km
Cloud details: Mostly cloudy 6500 ft
Overcast 8500 ft
2020/09/29 02:15 KMCD 290215Z AUTO 29007KT 7SM -RA BKN065 OVC085 11/11 A2963 RMK AO2 T01080108
 
KPLN - Pellston, Michigan, USA
Distance from station: WSW 24mi, 38km
Updated: 09/28/2020 9:54pm
Overcast
Overcast
 Wind from calm
Wind: Calm
Temperature: 52°F , 11°C
Barometer: 29.65 inHg , 1004.1 hPa
Clouds: Overcast
Visibility: 10 miles , 16 km
Cloud details: Mostly cloudy 7000 ft
Overcast 9000 ft
2020/09/29 01:54 KPLN 290154Z AUTO 00000KT 10SM BKN070 OVC090 11/ A2965 RMK AO2 SLP042 T0106 $
KPZQ - Rogers City, Michigan, USA
Distance from station: SE 31mi, 50km
Updated: 09/28/2020 10:15pm
Overcast
Overcast
 Wind from WSW
Wind: WSW 5 mph , 7 km/h
Temperature: 54°F , 12°C
Dew Point: 52°F , 11°C
Humidity: 94%
Barometer: 29.65 inHg , 1004.1 hPa
Clouds: Overcast
Visibility: 10 miles , 16 km
Cloud details: Partly cloudy 4000 ft
Mostly cloudy 5500 ft
Overcast 8500 ft
2020/09/29 02:15 KPZQ 290215Z AUTO 25004KT 10SM SCT040 BKN055 OVC085 12/11 A2965 RMK AO2 T01200106
 
KMGN - Harbor Springs, Michigan, USA
Distance from station: WSW 32mi, 52km
Updated: 09/28/2020 10:15pm
Overcast
Overcast
 Wind from SSE
Wind: SSE 3 mph , 6 km/h
Temperature: 52°F , 11°C
Dew Point: 50°F , 10°C
Humidity: 94%
Barometer: 29.65 inHg , 1004.1 hPa
Clouds: Overcast
Visibility: 10 miles , 16 km
Cloud details: Partly cloudy 1100 ft
Mostly cloudy 4200 ft
Overcast 6000 ft
2020/09/29 02:15 KMGN 290215Z AUTO 15003KT 10SM SCT011 BKN042 OVC060 11/10 A2965 RMK AO2 T01080103
KDRM - Drummond Is, Michigan, USA
Distance from station: NE 36mi, 59km
Updated: 09/28/2020 10:15pm
Light rain, Overcast
Light rain, Overcast
 Wind from WSW
Wind: WSW 3 mph , 6 km/h
Temperature: 54°F , 12°C
Dew Point: 54°F , 12°C
Humidity: 100%
Barometer: 29.62 inHg , 1003 hPa
Summary: Light rain
Clouds: Overcast
Visibility: 10 miles , 16 km
Cloud details: Mostly cloudy 800 ft
Mostly cloudy 2000 ft
Overcast 4300 ft
2020/09/29 02:15 KDRM 290215Z AUTO 25003KT 10SM -RA BKN008 BKN020 OVC043 12/12 A2962 RMK AO2 P0001 T01200116
 
KCIU - Chippewa Intl, Michigan, USA
Distance from station: N 41mi, 66km
Updated: 09/28/2020 10:03pm
Light rain, Overcast
Light rain, Overcast
 Wind from W
Wind: W 6 mph , 9 km/h
Temperature: 52°F , 11°C
Dew Point: 52°F , 11°C
Humidity: 100%
Barometer: 29.63 inHg , 1003.4 hPa
Summary: Light rain
Clouds: Overcast
Visibility: 10 miles , 16 km
Cloud details: Mostly cloudy 400 ft
Mostly cloudy 900 ft
Overcast 4500 ft
2020/09/29 02:03 KCIU 290203Z AUTO 27005KT 10SM -RA BKN004 BKN009 OVC045 11/11 A2963 RMK AO2 P0001
KGLR - Gaylord, Michigan, USA
Distance from station: SSW 48mi, 77km
Updated: 09/28/2020 9:53pm
Mostly cloudy
Mostly cloudy
 Wind from SW
Wind: SW 6 mph , 9 km/h
Temperature: 52°F , 11°C
Dew Point: 50°F , 10°C
Humidity: 94%
Barometer: 29.66 inHg , 1004.4 hPa
Clouds: Mostly cloudy
Visibility: 10 miles , 16 km
Cloud details: Few Clouds 2600 ft
Few Clouds 3900 ft
Mostly cloudy 5000 ft
2020/09/29 01:53 KGLR 290153Z AUTO 22005KT 10SM FEW026 FEW039 BKN050 11/10 A2966 RMK AO2 RAB13E26 SLP046 P0000 T01060100
 
KCVX - Charlevoix, Michigan, USA
Distance from station: WSW 52mi, 83km
Updated: 09/28/2020 10:15pm
Overcast
Overcast
 Wind from NNW
Wind: NNW 6 mph , 9 km/h
Temperature: 55°F , 13°C
Dew Point: 52°F , 11°C
Humidity: 88%
Barometer: 29.65 inHg , 1004.1 hPa
Clouds: Overcast
Visibility: 10 miles , 16 km
Cloud details: Partly cloudy 1300 ft
Mostly cloudy 4000 ft
Overcast 4700 ft
2020/09/29 02:15 KCVX 290215Z AUTO 33005KT 10SM SCT013 BKN040 OVC047 13/11 A2965 RMK AO2 T01250111
KANJ - Sault Ste Marie, Michigan, USA
Distance from station: N 56mi, 89km
Updated: 09/28/2020 9:55pm
Light rain, Overcast
Light rain, Overcast
 Wind from W
Wind: W 7 mph , 11 km/h
Temperature: 55°F , 13°C
Dew Point: 54°F , 12°C
Humidity: 94%
Barometer: 29.61 inHg , 1002.7 hPa
Summary: Light rain
Clouds: Overcast
Visibility: 10 miles , 16 km
Cloud details: Overcast 7000 ft
2020/09/29 01:55 KANJ 290155Z AUTO 28006KT 10SM -RA OVC070 13/12 A2961 RMK AO2 RAB23 SLP026 P0002 T01280117
 
KAPN - Alpena, Michigan, USA
Distance from station: SE 56mi, 89km
Updated: 09/28/2020 9:54pm
Light rain, Overcast
Light rain, Overcast
 Wind from SW
Wind: SW 5 mph , 7 km/h
Temperature: 54°F , 12°C
Dew Point: 54°F , 12°C
Humidity: 100%
Barometer: 29.66 inHg , 1004.4 hPa
Summary: Light rain
Clouds: Overcast
Visibility: 9 miles , 14 km
Cloud details: Few Clouds 700 ft
Mostly cloudy 6500 ft
Overcast 8000 ft
2020/09/29 01:54 KAPN 290154Z AUTO 22004KT 9SM -RA FEW007 BKN065 OVC080 12/12 A2966 RMK AO2 RAB25E34B43 SLP045 P0000 T01220117
CYAM - Sault Ste Marie, Ontario, Canada
Distance from station: N 56mi, 90km
Updated: 09/28/2020 10:00pm
Light rain, Overcast
Light rain, Overcast
 Wind from W
Wind: W 12 mph , 19 km/h
Temperature: 54°F , 12°C
Dew Point: 52°F , 11°C
Humidity: 94%
Barometer: 29.62 inHg , 1003 hPa
Summary: Light rain
Clouds: Overcast
Visibility: 10 miles , 16 km
Cloud details: Few Clouds 800 ft
Partly cloudy 1800 ft
Mostly cloudy 6200 ft
Overcast 6800 ft
2020/09/29 02:00 CYAM 290200Z 28010KT 10SM -RA FEW008 SCT018 BKN062 OVC068 12/11 A2962 RMK CF1CU2SC4AC1 SLP035 DENSITY ALT 800FT
 
KSJX - Beaver Island, Michigan, USA
Distance from station: W 60mi, 96km
Updated: 09/28/2020 10:15pm
Overcast
Overcast
 Wind from NNW
Wind: NNW 7 mph , 11 km/h
Temperature: 54°F , 12°C
Dew Point: 50°F , 10°C
Humidity: 88%
Barometer: 29.67 inHg , 1004.7 hPa
Clouds: Overcast
Visibility: 10 miles , 16 km
Cloud details: Partly cloudy 1300 ft
Mostly cloudy 2000 ft
Overcast 3000 ft
2020/09/29 02:15 KSJX 290215Z AUTO 33006KT 10SM SCT013 BKN020 OVC030 12/10 A2967 RMK AO2 T01150099
KACB - Bellaire, Michigan, USA
Distance from station: SW 63mi, 102km
Updated: 09/28/2020 10:15pm
Light rain, Overcast
Light rain, Overcast
 Wind from calm
Wind: Calm
Temperature: 55°F , 13°C
Dew Point: 52°F , 11°C
Humidity: 88%
Barometer: 29.66 inHg , 1004.4 hPa
Summary: Light rain
Clouds: Overcast
Visibility: 7 miles , 11 km
Cloud details: Partly cloudy 1000 ft
Mostly cloudy 2700 ft
Overcast 7500 ft
2020/09/29 02:15 KACB 290215Z AUTO 00000KT 7SM -RA SCT010 BKN027 OVC075 13/11 A2966 RMK AO2 T01250113
 
CWNL - Great Duck Island, Ontario, Canada
Distance from station: E 66mi, 106km
Updated: 09/28/2020 9:00pm
NOT Current

 Wind from W
Wind: W 5 mph , 7 km/h
Temperature: 54°F , 12°C
Dew Point: 52°F , 11°C
Humidity: 94%
2020/09/29 01:00 CWNL 290100Z AUTO 28004KT 12/11 RMK AO1 SLP036 T01210110 55003
KERY - Newberry, Michigan, USA
Distance from station: NW 69mi, 112km
Updated: 09/28/2020 10:15pm
Overcast
Overcast
 Wind from WNW
Wind: WNW 7 mph , 11 km/h
Temperature: 50°F , 10°C
Wind Chill: 47°F , 8°C
Dew Point: 50°F , 10°C
Humidity: 100%
Barometer: 29.64 inHg , 1003.7 hPa
Clouds: Overcast
Visibility: 10 miles , 16 km
Cloud details: Mostly cloudy 600 ft
Mostly cloudy 2700 ft
Overcast 3500 ft
2020/09/29 02:15 KERY 290215Z AUTO 29006KT 10SM BKN006 BKN027 OVC035 10/10 A2964 RMK AO2 T01030101
 
KGOV - Grayling Af, Michigan, USA
Distance from station: SSW 70mi, 113km
Updated: 09/28/2020 9:58pm
Overcast
Overcast
 Wind from WSW
Wind: WSW 3 mph , 6 km/h
Temperature: 50°F , 10°C
Dew Point: 50°F , 10°C
Humidity: 100%
Barometer: 29.66 inHg , 1004.4 hPa
Clouds: Overcast
Visibility: 10 miles , 16 km
Cloud details: Mostly cloudy 6000 ft
Mostly cloudy 7500 ft
Overcast 16000 ft
2020/09/29 01:58 KGOV 290158Z AUTO 25003KT 10SM BKN060 BKN075 OVC160 10/10 A2966 RMK AO2 RAE03 SLP053 P0000 T01040097 $